createdAt,value
2019-04-27T00:00:53.496Z,9.68
2019-04-27T00:03:41.334Z,9.93
2019-04-27T00:06:21.087Z,9.10
2019-04-27T00:08:59.147Z,10.55
2019-04-27T00:11:30.517Z,9.68
2019-04-27T00:13:59.145Z,10.10
2019-04-27T00:16:50.583Z,11.22
2019-04-27T00:19:35.416Z,9.88
2019-04-27T00:22:04.453Z,10.00
2019-04-27T00:24:33.532Z,10.38
2019-04-27T00:27:03.342Z,11.53
2019-04-27T00:29:33.154Z,9.98
2019-04-27T00:32:01.819Z,10.48
2019-04-27T00:34:30.473Z,10.55
2019-04-27T00:37:16.805Z,10.08
2019-04-27T00:40:04.842Z,10.40
2019-04-27T00:42:35.619Z,10.23
2019-04-27T00:45:07.005Z,11.10
2019-04-27T00:47:37.576Z,9.85
2019-04-27T00:50:06.996Z,10.60
2019-04-27T00:52:35.563Z,10.32
2019-04-27T00:55:05.954Z,10.45
2019-04-27T00:57:39.116Z,9.75
2019-04-27T01:00:13.461Z,10.32
2019-04-27T01:02:46.721Z,10.28
2019-04-27T01:05:16.946Z,10.30
2019-04-27T01:07:45.618Z,10.25
2019-04-27T01:10:14.360Z,10.53
2019-04-27T01:12:43.075Z,10.10
2019-04-27T01:15:13.588Z,10.55
2019-04-27T01:17:42.065Z,9.98
2019-04-27T01:20:10.743Z,9.83
2019-04-27T01:22:39.325Z,9.80
2019-04-27T01:25:08.763Z,9.53
2019-04-27T01:27:39.397Z,9.73
2019-04-27T01:30:10.331Z,10.13
2019-04-27T01:32:39.204Z,9.73
2019-04-27T01:35:09.006Z,10.58
2019-04-27T01:37:38.660Z,10.50
2019-04-27T01:40:07.630Z,9.38
2019-04-27T01:42:36.962Z,9.70
2019-04-27T01:45:08.542Z,9.58
2019-04-27T01:47:37.108Z,11.00
2019-04-27T01:50:10.039Z,8.85
2019-04-27T01:52:38.699Z,9.85
2019-04-27T01:55:08.660Z,9.55
2019-04-27T01:57:38.663Z,9.48
2019-04-27T02:00:19.295Z,9.60
2019-04-27T02:02:49.622Z,10.28
2019-04-27T02:05:19.820Z,9.58
2019-04-27T02:07:49.144Z,9.73
2019-04-27T02:10:19.132Z,10.13
2019-04-27T02:12:48.692Z,9.60
2019-04-27T02:15:19.132Z,9.23
2019-04-27T02:17:50.688Z,9.90
2019-04-27T02:20:19.642Z,8.83
2019-04-27T02:22:48.517Z,9.40
2019-04-27T02:25:19.255Z,9.33
2019-04-27T02:27:50.430Z,9.33
2019-04-27T02:30:27.476Z,9.18
2019-04-27T02:33:06.707Z,8.10
2019-04-27T02:35:35.383Z,9.90
2019-04-27T02:38:04.104Z,9.45
2019-04-27T02:40:51.848Z,8.90
2019-04-27T02:43:22.597Z,9.45
2019-04-27T02:45:54.214Z,9.68
2019-04-27T02:48:22.972Z,9.10
2019-04-27T02:50:53.168Z,9.58
2019-04-27T02:53:29.623Z,9.00
2019-04-27T02:55:59.538Z,9.13
2019-04-27T02:58:28.190Z,10.00
2019-04-27T03:00:56.764Z,8.85
2019-04-27T03:03:26.319Z,9.35
2019-04-27T03:05:54.880Z,10.05
2019-04-27T03:08:23.462Z,9.05
2019-04-27T03:10:52.667Z,9.38
2019-04-27T03:13:25.339Z,16.07
2019-04-27T03:16:07.442Z,10.38
2019-04-27T03:18:43.581Z,9.98
2019-04-27T03:21:13.786Z,8.58
2019-04-27T03:23:42.433Z,9.20
2019-04-27T03:26:12.716Z,9.90
2019-04-27T03:28:41.414Z,9.08
2019-04-27T03:31:13.527Z,9.98
2019-04-27T03:33:43.043Z,8.98
2019-04-27T03:36:12.942Z,9.90
2019-04-27T03:38:40.957Z,10.48
2019-04-27T03:41:09.731Z,9.13
2019-04-27T03:43:40.293Z,10.03
2019-04-27T03:46:10.276Z,9.60
2019-04-27T03:48:40.729Z,9.63
2019-04-27T03:51:13.761Z,10.15
2019-04-27T03:53:46.929Z,8.93
2019-04-27T03:56:22.568Z,9.73
2019-04-27T03:58:52.961Z,9.53
2019-04-27T04:01:21.535Z,9.78
2019-04-27T04:03:51.116Z,9.45
2019-04-27T04:06:20.772Z,8.73
2019-04-27T04:08:54.903Z,9.00
2019-04-27T04:11:31.367Z,9.38
2019-04-27T04:14:04.621Z,9.85
2019-04-27T04:16:39.529Z,10.55
2019-04-27T04:19:11.421Z,10.18
2019-04-27T04:21:40.335Z,9.93
2019-04-27T04:24:11.661Z,10.15
2019-04-27T04:26:40.212Z,9.58
2019-04-27T04:29:10.390Z,9.20
2019-04-27T04:31:40.376Z,9.70
2019-04-27T04:34:11.786Z,8.80
2019-04-27T04:36:42.586Z,9.75
2019-04-27T04:39:11.922Z,9.60
2019-04-27T04:41:44.560Z,10.50
2019-04-27T04:44:23.885Z,9.00
2019-04-27T04:46:54.205Z,9.83
2019-04-27T04:49:22.777Z,8.60
2019-04-27T04:51:51.353Z,9.63
2019-04-27T04:54:24.184Z,9.83
2019-04-27T04:56:50.150Z,10.70
2019-04-27T04:59:20.117Z,8.68
2019-04-27T05:01:49.921Z,9.05
2019-04-27T05:04:19.351Z,9.20
2019-04-27T05:06:50.703Z,8.98
2019-04-27T05:09:19.493Z,8.90
2019-04-27T05:11:48.680Z,8.90
2019-04-27T05:14:17.394Z,8.50
2019-04-27T05:16:48.478Z,8.98
2019-04-27T05:19:19.122Z,8.58
2019-04-27T05:21:49.159Z,8.33
2019-04-27T05:24:19.264Z,8.55
2019-04-27T05:26:48.758Z,8.53
2019-04-27T05:29:18.922Z,8.08
2019-04-27T05:31:49.043Z,8.65
2019-04-27T05:34:19.546Z,8.63
2019-04-27T05:36:50.323Z,9.28
2019-04-27T05:39:24.742Z,9.45
2019-04-27T05:41:49.780Z,8.43
2019-04-27T05:44:32.513Z,8.55
2019-04-27T05:47:05.438Z,8.60
2019-04-27T05:49:36.380Z,10.05
2019-04-27T05:52:08.544Z,8.20
2019-04-27T05:54:38.552Z,8.88
2019-04-27T05:57:07.184Z,8.40
2019-04-27T05:59:35.759Z,8.60
2019-04-27T06:02:04.408Z,8.80
2019-04-27T06:04:32.993Z,9.35
2019-04-27T06:07:01.715Z,9.65
2019-04-27T06:09:30.277Z,9.58
2019-04-27T06:11:59.164Z,10.08
2019-04-27T06:14:29.323Z,10.05
2019-04-27T06:16:59.551Z,11.83
2019-04-27T06:19:29.158Z,11.68
2019-04-27T06:22:01.026Z,12.63
2019-04-27T06:24:29.792Z,13.18
2019-04-27T06:26:59.729Z,14.07
2019-04-27T06:29:29.264Z,15.05
2019-04-27T06:31:59.350Z,17.55
2019-04-27T06:34:30.646Z,16.87
2019-04-27T06:36:59.904Z,17.50
2019-04-27T06:39:29.796Z,18.23
2019-04-27T06:41:59.033Z,17.98
2019-04-27T06:44:29.333Z,18.00
2019-04-27T06:46:59.174Z,19.57
2019-04-27T06:49:29.400Z,17.57
2019-04-27T06:51:58.683Z,18.10
2019-04-27T06:54:28.847Z,19.12
2019-04-27T06:56:59.154Z,17.87
2019-04-27T06:59:29.006Z,19.62
2019-04-27T07:02:00.521Z,21.82
2019-04-27T07:04:29.404Z,21.05
2019-04-27T07:06:59.456Z,22.62
2019-04-27T07:09:29.512Z,21.07
2019-04-27T07:11:59.313Z,21.50
2019-04-27T07:14:29.474Z,21.20
2019-04-27T07:16:59.161Z,22.27
2019-04-27T07:19:28.997Z,21.73
2019-04-27T07:21:59.037Z,24.07
2019-04-27T07:24:29.245Z,22.25
2019-04-27T07:26:59.580Z,23.38
2019-04-27T07:29:29.278Z,23.15
2019-04-27T07:31:59.509Z,24.30
2019-04-27T07:34:28.664Z,23.35
2019-04-27T07:36:59.751Z,23.02
2019-04-27T07:39:29.367Z,22.82
2019-04-27T07:41:58.528Z,22.60
2019-04-27T07:44:43.750Z,23.80
2019-04-27T07:47:16.964Z,23.80
2019-04-27T07:49:46.718Z,23.83
2019-04-27T07:52:15.275Z,24.25
2019-04-27T07:54:44.202Z,22.60
2019-04-27T07:57:12.850Z,23.55
2019-04-27T07:59:42.079Z,24.85
2019-04-27T08:02:11.162Z,25.68
2019-04-27T08:04:41.833Z,25.30
2019-04-27T08:07:10.386Z,24.98
2019-04-27T08:09:40.043Z,24.02
2019-04-27T08:12:11.059Z,24.20
2019-04-27T08:14:40.004Z,23.50
2019-04-27T08:17:09.775Z,24.63
2019-04-27T08:19:39.596Z,23.73
2019-04-27T08:22:09.623Z,23.83
2019-04-27T08:24:44.193Z,23.80
2019-04-27T08:27:30.610Z,23.05
2019-04-27T08:30:17.122Z,22.87
2019-04-27T08:32:49.549Z,23.05
2019-04-27T08:35:19.490Z,21.97
2019-04-27T08:37:49.624Z,22.90
2019-04-27T08:40:19.300Z,21.93
2019-04-27T08:42:51.045Z,21.23
2019-04-27T08:45:19.473Z,20.92
2019-04-27T08:47:49.962Z,21.23
2019-04-27T08:50:19.152Z,22.37
2019-04-27T08:52:49.888Z,22.42
2019-04-27T08:55:19.588Z,21.87
2019-04-27T08:57:52.012Z,22.10
2019-04-27T09:02:50.363Z,22.15
2019-04-27T09:05:21.135Z,21.23
2019-04-27T09:07:59.450Z,20.43
2019-04-27T09:10:32.176Z,21.80
2019-04-27T09:13:02.435Z,21.05
2019-04-27T09:15:33.552Z,20.82
2019-04-27T09:18:02.962Z,22.42
2019-04-27T09:20:33.250Z,22.05
2019-04-27T09:23:02.821Z,21.55
2019-04-27T09:25:31.427Z,22.48
2019-04-27T09:28:00.031Z,21.57
2019-04-27T09:30:29.817Z,22.70
2019-04-27T09:32:58.801Z,22.13
2019-04-27T09:35:27.583Z,21.50
2019-04-27T09:37:56.345Z,20.80
2019-04-27T09:40:26.637Z,21.95
2019-04-27T09:42:57.031Z,20.75
2019-04-27T09:45:27.073Z,20.62
2019-04-27T09:47:56.299Z,20.40
2019-04-27T09:50:27.962Z,20.23
2019-04-27T09:52:55.724Z,19.70
2019-04-27T09:55:26.161Z,20.85
2019-04-27T09:57:56.735Z,19.82
2019-04-27T10:00:25.334Z,20.57
2019-04-27T10:02:53.919Z,20.90
2019-04-27T10:05:22.611Z,19.35
2019-04-27T10:07:51.185Z,19.37
2019-04-27T10:10:20.212Z,19.07
2019-04-27T10:12:48.798Z,19.27
2019-04-27T10:15:17.428Z,19.25
2019-04-27T10:17:46.941Z,18.85
2019-04-27T10:20:16.852Z,19.87
2019-04-27T10:22:46.310Z,19.20
2019-04-27T10:25:22.329Z,18.82
2019-04-27T10:27:52.693Z,19.62
2019-04-27T10:30:21.611Z,18.82
2019-04-27T10:32:50.175Z,24.75
2019-04-27T10:35:18.748Z,19.73
2019-04-27T10:37:47.366Z,22.32
2019-04-27T10:40:16.172Z,18.85
2019-04-27T10:42:45.900Z,21.45
2019-04-27T10:45:16.659Z,19.52
2019-04-27T10:47:46.033Z,21.97
2019-04-27T10:50:16.026Z,18.90
2019-04-27T10:52:53.347Z,19.37
2019-04-27T10:55:16.108Z,18.95
2019-04-27T10:57:44.789Z,19.40
2019-04-27T11:00:16.678Z,18.15
2019-04-27T11:02:45.299Z,17.85
2019-04-27T11:05:16.310Z,19.02
2019-04-27T11:07:46.344Z,18.42
2019-04-27T11:10:16.381Z,18.67
2019-04-27T11:12:47.494Z,19.17
2019-04-27T11:15:16.501Z,18.10
2019-04-27T11:17:45.851Z,17.37
2019-04-27T11:20:15.523Z,17.73
2019-04-27T11:22:44.118Z,17.42
2019-04-27T11:25:12.950Z,16.65
2019-04-27T11:27:41.478Z,20.37
2019-04-27T11:30:10.991Z,21.45
2019-04-27T11:32:39.740Z,19.85
2019-04-27T11:35:22.412Z,18.30
2019-04-27T11:37:53.530Z,18.25
2019-04-27T11:40:24.417Z,18.05
2019-04-27T11:42:52.993Z,17.32
2019-04-27T11:45:22.625Z,17.10
2019-04-27T11:47:51.187Z,22.58
2019-04-27T11:50:20.011Z,17.02
2019-04-27T11:52:48.666Z,18.30
2019-04-27T11:55:17.636Z,19.37
2019-04-27T11:57:47.054Z,17.70
2019-04-27T12:00:19.480Z,17.42
2019-04-27T12:02:48.093Z,16.40
2019-04-27T12:05:17.114Z,16.30
2019-04-27T12:07:47.743Z,16.95
2019-04-27T12:10:16.820Z,17.10
2019-04-27T12:12:46.374Z,16.70
2019-04-27T12:15:16.097Z,17.37
2019-04-27T12:17:46.119Z,17.80
2019-04-27T12:20:17.443Z,17.05
2019-04-27T12:22:45.584Z,17.73
2019-04-27T12:25:17.199Z,17.32
2019-04-27T12:28:03.117Z,16.70
2019-04-27T12:30:33.504Z,18.05
2019-04-27T12:33:02.213Z,17.10
2019-04-27T12:35:31.084Z,17.40
2019-04-27T12:37:59.695Z,17.42
2019-04-27T12:40:28.265Z,17.32
2019-04-27T12:42:56.839Z,15.72
2019-04-27T12:45:26.675Z,18.40
2019-04-27T12:47:56.559Z,17.32
2019-04-27T12:50:26.114Z,16.62
2019-04-27T12:53:11.587Z,16.80
2019-04-27T12:55:42.100Z,16.80
2019-04-27T12:58:21.189Z,16.82
2019-04-27T13:00:51.449Z,18.15
2019-04-27T13:03:21.183Z,17.95
2019-04-27T13:05:49.771Z,17.42
2019-04-27T13:08:18.443Z,18.37
2019-04-27T13:10:47.076Z,17.40
2019-04-27T13:13:16.668Z,17.10
2019-04-27T13:15:46.011Z,17.10
2019-04-27T13:18:16.557Z,17.80
2019-04-27T13:20:45.019Z,18.17
2019-04-27T13:23:14.470Z,18.67
2019-04-27T13:25:45.979Z,17.37
2019-04-27T13:28:14.585Z,16.97
2019-04-27T13:30:45.591Z,18.23
2019-04-27T13:33:17.278Z,17.10
2019-04-27T13:35:45.882Z,17.90
2019-04-27T13:38:17.834Z,19.67
2019-04-27T13:40:47.285Z,16.95
2019-04-27T13:43:23.523Z,17.40
2019-04-27T13:46:02.601Z,19.15
2019-04-27T13:48:32.833Z,18.92
2019-04-27T13:51:03.201Z,19.32
2019-04-27T13:53:31.893Z,20.35
2019-04-27T13:56:03.050Z,24.45
2019-04-27T13:58:31.619Z,19.55
2019-04-27T14:01:00.423Z,19.57
2019-04-27T14:03:28.991Z,21.07
2019-04-27T14:05:59.083Z,19.90
2019-04-27T14:08:29.092Z,20.48
2019-04-27T14:10:58.798Z,20.20
2019-04-27T14:13:28.847Z,20.30
2019-04-27T14:15:57.428Z,19.48
2019-04-27T14:18:26.007Z,19.32
2019-04-27T14:20:54.581Z,18.37
2019-04-27T14:23:25.240Z,20.32
2019-04-27T14:25:54.143Z,19.77
2019-04-27T14:28:22.767Z,18.85
2019-04-27T14:30:51.411Z,18.95
2019-04-27T14:33:19.991Z,18.32
2019-04-27T14:35:49.989Z,18.55
2019-04-27T14:38:19.133Z,18.67
2019-04-27T14:40:50.120Z,18.98
2019-04-27T14:43:18.964Z,19.60
2019-04-27T14:45:48.569Z,17.85
2019-04-27T14:48:18.519Z,21.48
2019-04-27T14:50:48.511Z,20.92
2019-04-27T14:53:17.312Z,19.07
2019-04-27T14:55:45.877Z,16.37
2019-04-27T14:58:14.755Z,15.95
2019-04-27T15:00:43.509Z,16.45
2019-04-27T15:03:12.095Z,15.13
2019-04-27T15:05:40.665Z,16.77
2019-04-27T15:08:09.927Z,16.30
2019-04-27T15:10:38.702Z,16.65
2019-04-27T15:13:08.324Z,16.93
2019-04-27T15:15:37.750Z,17.75
2019-04-27T15:18:06.716Z,17.15
2019-04-27T15:20:39.746Z,17.67
2019-04-27T15:23:07.295Z,18.55
2019-04-27T15:25:45.018Z,17.90
2019-04-27T15:28:12.157Z,19.27
2019-04-27T15:30:42.486Z,18.52
2019-04-27T15:33:16.196Z,18.90
2019-04-27T15:35:46.562Z,20.23
2019-04-27T15:38:18.609Z,19.73
2019-04-27T15:40:54.700Z,19.12
2019-04-27T15:43:27.286Z,19.50
2019-04-27T15:45:57.628Z,18.80
2019-04-27T15:48:30.685Z,19.85
2019-04-27T15:51:02.853Z,21.37
2019-04-27T15:53:28.448Z,18.98
2019-04-27T15:56:01.740Z,17.70
2019-04-27T15:58:29.247Z,19.23
2019-04-27T16:01:02.376Z,18.90
2019-04-27T16:03:31.364Z,20.75
2019-04-27T16:06:03.238Z,19.25
2019-04-27T16:08:30.195Z,19.10
2019-04-27T16:11:00.040Z,19.37
2019-04-27T16:13:32.918Z,20.37
2019-04-27T16:15:59.757Z,21.12
2019-04-27T16:18:29.228Z,22.10
2019-04-27T16:20:58.765Z,22.22
2019-04-27T16:23:28.268Z,23.25
2019-04-27T16:25:58.196Z,21.97
2019-04-27T16:28:27.302Z,21.77
2019-04-27T16:30:55.987Z,22.48
2019-04-27T16:33:24.590Z,21.55
2019-04-27T16:35:57.416Z,21.35
2019-04-27T16:38:26.627Z,20.72
2019-04-27T16:41:01.882Z,20.25
2019-04-27T16:43:30.033Z,20.65
2019-04-27T16:46:04.103Z,20.12
2019-04-27T16:48:34.384Z,19.37
2019-04-27T16:50:59.357Z,19.62
2019-04-27T16:53:30.093Z,19.05
2019-04-27T16:56:14.356Z,19.75
2019-04-27T16:58:39.509Z,19.95
2019-04-27T17:01:11.443Z,19.80
2019-04-27T17:03:41.481Z,19.27
2019-04-27T17:06:10.250Z,20.23
2019-04-27T17:08:39.377Z,20.40
2019-04-27T17:11:12.961Z,19.67
2019-04-27T17:13:44.402Z,19.50
2019-04-27T17:16:18.952Z,20.10
2019-04-27T17:18:49.248Z,20.40
2019-04-27T17:21:21.159Z,20.90
2019-04-27T17:23:48.224Z,20.15
2019-04-27T17:26:21.746Z,21.33
2019-04-27T17:28:54.617Z,21.07
2019-04-27T17:31:24.851Z,21.05
2019-04-27T17:34:00.729Z,20.55
2019-04-27T17:36:29.571Z,20.15
2019-04-27T17:38:58.457Z,19.85
2019-04-27T17:41:28.308Z,20.02
2019-04-27T17:43:58.937Z,19.90
2019-04-27T17:46:28.213Z,19.48
2019-04-27T17:49:00.004Z,18.73
2019-04-27T17:51:30.557Z,18.02
2019-04-27T17:53:58.618Z,18.23
2019-04-27T17:56:33.997Z,18.00
2019-04-27T17:58:58.637Z,19.25
2019-04-27T18:01:30.090Z,17.48
2019-04-27T18:03:59.970Z,17.35
2019-04-27T18:06:29.646Z,19.98
2019-04-27T18:09:00.674Z,19.00
2019-04-27T18:11:28.832Z,18.57
2019-04-27T18:14:00.353Z,19.23
2019-04-27T18:16:33.784Z,20.08
2019-04-27T18:19:07.988Z,21.35
2019-04-27T18:21:34.707Z,22.02
2019-04-27T18:24:08.659Z,21.73
2019-04-27T18:27:00.507Z,22.48
2019-04-27T18:29:27.625Z,21.07
2019-04-27T18:31:55.363Z,22.07
2019-04-27T18:34:25.200Z,22.20
2019-04-27T18:36:54.860Z,21.37
2019-04-27T18:39:23.449Z,21.15
2019-04-27T18:41:54.271Z,21.12
2019-04-27T18:44:23.971Z,20.70
2019-04-27T18:46:53.552Z,20.55
2019-04-27T18:49:39.183Z,20.80
2019-04-27T18:52:25.587Z,19.37
2019-04-27T18:54:54.242Z,19.25
2019-04-27T18:57:22.810Z,20.23
2019-04-27T18:59:52.296Z,19.67
2019-04-27T19:02:20.859Z,20.17
2019-04-27T19:04:50.137Z,21.02
2019-04-27T19:07:19.935Z,19.37
2019-04-27T19:09:49.600Z,20.52
2019-04-27T19:12:18.347Z,19.82
2019-04-27T19:14:49.808Z,18.95
2019-04-27T19:17:19.854Z,19.98
2019-04-27T19:19:48.587Z,20.60
2019-04-27T19:22:17.217Z,19.80
2019-04-27T19:24:45.801Z,20.77
2019-04-27T19:27:25.091Z,19.90
2019-04-27T19:29:55.304Z,20.35
2019-04-27T19:32:24.903Z,20.30
2019-04-27T19:34:53.468Z,19.23
2019-04-27T19:37:22.034Z,20.00
2019-04-27T19:39:50.657Z,19.48
2019-04-27T19:42:20.333Z,19.23
2019-04-27T19:44:49.479Z,19.82
2019-04-27T19:47:18.090Z,18.75
2019-04-27T19:49:46.659Z,19.12
2019-04-27T19:52:15.291Z,18.23
2019-04-27T19:54:44.221Z,19.25
2019-04-27T19:57:12.787Z,19.17
2019-04-27T19:59:42.999Z,19.00
2019-04-27T20:02:13.354Z,19.75
2019-04-27T20:04:46.133Z,18.73
2019-04-27T20:07:14.720Z,18.02
2019-04-27T20:09:44.906Z,19.00
2019-04-27T20:12:13.811Z,19.62
2019-04-27T20:14:57.254Z,18.20
2019-04-27T20:17:31.141Z,18.98
2019-04-27T20:20:00.398Z,17.32
2019-04-27T20:22:29.041Z,17.30
2019-04-27T20:24:57.642Z,17.92
2019-04-27T20:27:26.252Z,18.80
2019-04-27T20:29:54.972Z,18.35
2019-04-27T20:32:23.618Z,18.35
2019-04-27T20:34:52.533Z,18.37
2019-04-27T20:37:21.210Z,18.60
2019-04-27T20:39:51.489Z,19.17
2019-04-27T20:42:21.173Z,20.02
2019-04-27T20:44:51.435Z,19.32
2019-04-27T20:47:20.416Z,19.35
2019-04-27T20:49:48.994Z,21.40
2019-04-27T20:52:20.894Z,20.30
2019-04-27T20:54:51.354Z,20.30
2019-04-27T20:57:21.645Z,20.50
2019-04-27T20:59:52.273Z,22.35
2019-04-27T21:02:32.196Z,20.10
2019-04-27T21:05:18.565Z,19.95
2019-04-27T21:07:48.742Z,19.35
2019-04-27T21:10:17.410Z,19.42
2019-04-27T21:12:45.964Z,19.37
2019-04-27T21:15:14.748Z,17.95
2019-04-27T21:17:43.450Z,18.82
2019-04-27T21:20:13.263Z,18.35
2019-04-27T21:22:41.908Z,17.55
2019-04-27T21:25:11.887Z,17.87
2019-04-27T21:27:41.186Z,16.93
2019-04-27T21:30:11.455Z,16.17
2019-04-27T21:32:40.470Z,14.43
2019-04-27T21:35:10.894Z,15.15
2019-04-27T21:37:40.884Z,14.87
2019-04-27T21:40:14.829Z,14.70
2019-04-27T21:42:43.579Z,15.72
2019-04-27T21:45:12.391Z,14.23
2019-04-27T21:47:41.349Z,14.30
2019-04-27T21:50:12.139Z,13.68
2019-04-27T21:53:00.595Z,14.13
2019-04-27T21:55:32.527Z,13.78
2019-04-27T21:58:01.549Z,12.93
2019-04-27T22:00:39.847Z,13.35
2019-04-27T22:03:11.403Z,13.62
2019-04-27T22:05:41.692Z,14.90
2019-04-27T22:08:11.658Z,13.20
2019-04-27T22:10:40.735Z,14.35
2019-04-27T22:13:09.335Z,14.33
2019-04-27T22:15:37.938Z,14.60
2019-04-27T22:18:06.748Z,14.10
2019-04-27T22:20:35.904Z,13.88
2019-04-27T22:23:23.132Z,14.93
2019-04-27T22:25:54.420Z,15.53
2019-04-27T22:28:22.411Z,16.77
2019-04-27T22:30:50.981Z,14.43
2019-04-27T22:33:21.336Z,16.37
2019-04-27T22:35:51.627Z,15.38
2019-04-27T22:38:20.450Z,15.13
2019-04-27T22:40:53.436Z,16.37
2019-04-27T22:43:26.779Z,14.85
2019-04-27T22:45:56.084Z,15.08
2019-04-27T22:48:24.668Z,15.32
2019-04-27T22:50:53.540Z,16.25
2019-04-27T22:53:22.200Z,16.32
2019-04-27T22:56:11.152Z,16.60
2019-04-27T22:59:00.970Z,15.10
2019-04-27T23:01:36.068Z,16.00
2019-04-27T23:04:06.454Z,15.83
2019-04-27T23:06:35.043Z,15.80
2019-04-27T23:09:03.895Z,16.10
2019-04-27T23:11:32.568Z,16.57
2019-04-27T23:14:01.193Z,17.67
2019-04-27T23:16:31.341Z,14.83
2019-04-27T23:19:01.692Z,16.97
2019-04-27T23:21:31.284Z,15.25
2019-04-27T23:24:01.721Z,16.87
2019-04-27T23:26:31.189Z,16.40
2019-04-27T23:29:12.311Z,17.27
2019-04-27T23:31:32.014Z,14.15
2019-04-27T23:34:01.904Z,14.93
2019-04-27T23:36:31.710Z,13.85
2019-04-27T23:39:00.898Z,14.78
2019-04-27T23:41:29.659Z,15.20
2019-04-27T23:43:58.334Z,14.50
2019-04-27T23:46:26.908Z,14.65
2019-04-27T23:48:55.484Z,14.70
2019-04-27T23:51:28.709Z,14.25
2019-04-27T23:53:57.271Z,14.80
2019-04-27T23:56:25.912Z,14.13
2019-04-27T23:58:54.528Z,13.65
